createdAt,value
2018-05-06T00:00:11.447Z,84.52
2018-05-06T00:01:11.476Z,84.33
2018-05-06T00:02:11.513Z,84.62
2018-05-06T00:03:11.544Z,84.91
2018-05-06T00:04:11.575Z,85.10
2018-05-06T00:05:11.610Z,85.95
2018-05-06T00:06:11.643Z,85.76
2018-05-06T00:07:11.676Z,84.62
2018-05-06T00:08:11.719Z,83.95
2018-05-06T00:09:11.744Z,83.58
2018-05-06T00:10:11.777Z,83.67
2018-05-06T00:11:11.809Z,83.39
2018-05-06T00:12:11.842Z,83.29
2018-05-06T00:13:11.876Z,84.33
2018-05-06T00:14:11.908Z,83.95
2018-05-06T00:15:11.953Z,83.86
2018-05-06T00:16:11.975Z,84.05
2018-05-06T00:17:12.008Z,84.67
2018-05-06T00:18:12.049Z,84.29
2018-05-06T00:19:12.075Z,84.39
2018-05-06T00:20:12.107Z,84.33
2018-05-06T00:21:12.142Z,84.86
2018-05-06T00:22:12.175Z,84.77
2018-05-06T00:23:12.212Z,84.95
2018-05-06T00:24:12.241Z,84.77
2018-05-06T00:25:12.271Z,84.95
2018-05-06T00:26:12.307Z,85.05
2018-05-06T00:27:12.341Z,84.95
2018-05-06T00:28:12.370Z,84.67
2018-05-06T00:29:12.412Z,84.58
2018-05-06T00:30:12.437Z,84.10
2018-05-06T00:31:12.469Z,83.34
2018-05-06T00:32:12.504Z,84.77
2018-05-06T00:33:12.535Z,84.67
2018-05-06T00:34:12.567Z,84.58
2018-05-06T00:35:12.600Z,84.48
2018-05-06T00:36:12.635Z,84.77
2018-05-06T00:37:12.670Z,84.48
2018-05-06T00:38:12.698Z,84.67
2018-05-06T00:39:12.739Z,85.05
2018-05-06T00:40:12.764Z,85.15
2018-05-06T00:41:12.798Z,85.43
2018-05-06T00:42:12.833Z,85.81
2018-05-06T00:43:12.864Z,86.10
2018-05-06T00:44:12.895Z,86.38
2018-05-06T00:45:12.934Z,86.47
2018-05-06T00:46:12.962Z,86.95
2018-05-06T00:47:13.009Z,86.47
2018-05-06T00:48:13.026Z,87.05
2018-05-06T00:49:13.062Z,86.67
2018-05-06T00:50:13.093Z,87.01
2018-05-06T00:51:13.127Z,86.82
2018-05-06T00:52:13.163Z,87.86
2018-05-06T00:53:13.192Z,87.81
2018-05-06T00:54:13.225Z,88.05
2018-05-06T00:55:13.258Z,87.95
2018-05-06T00:56:13.290Z,87.29
2018-05-06T00:57:13.330Z,87.29
2018-05-06T00:58:13.355Z,88.34
2018-05-06T00:59:13.389Z,88.34
2018-05-06T01:00:13.425Z,88.62
2018-05-06T01:01:13.453Z,87.76
2018-05-06T01:02:13.487Z,87.95
2018-05-06T01:03:13.521Z,87.67
2018-05-06T01:04:13.551Z,88.43
2018-05-06T01:05:13.584Z,88.81
2018-05-06T01:06:13.616Z,89.28
2018-05-06T01:07:13.651Z,88.81
2018-05-06T01:08:13.686Z,88.15
2018-05-06T01:09:13.721Z,88.71
2018-05-06T01:10:13.756Z,88.15
2018-05-06T01:11:13.781Z,88.05
2018-05-06T01:12:13.811Z,87.81
2018-05-06T01:13:13.844Z,88.05
2018-05-06T01:14:13.877Z,88.38
2018-05-06T01:15:13.910Z,87.86
2018-05-06T01:16:13.943Z,88.24
2018-05-06T01:17:13.975Z,88.34
2018-05-06T01:18:14.009Z,87.67
2018-05-06T01:19:14.042Z,87.95
2018-05-06T01:20:14.072Z,88.15
2018-05-06T01:21:14.105Z,88.24
2018-05-06T01:22:14.142Z,88.34
2018-05-06T01:23:14.171Z,88.24
2018-05-06T01:24:14.203Z,88.34
2018-05-06T01:25:14.235Z,88.15
2018-05-06T01:26:14.372Z,88.05
2018-05-06T01:27:14.305Z,88.15
2018-05-06T01:28:14.333Z,88.15
2018-05-06T01:29:14.365Z,88.90
2018-05-06T01:30:14.398Z,88.43
2018-05-06T01:31:14.432Z,88.24
2018-05-06T01:32:14.465Z,87.76
2018-05-06T01:33:14.494Z,88.24
2018-05-06T01:34:14.527Z,88.90
2018-05-06T01:35:14.560Z,88.53
2018-05-06T01:36:14.594Z,88.15
2018-05-06T01:37:14.624Z,88.71
2018-05-06T01:38:14.659Z,88.71
2018-05-06T01:39:14.691Z,88.24
2018-05-06T01:40:14.723Z,88.15
2018-05-06T01:41:14.755Z,88.34
2018-05-06T01:42:14.787Z,87.95
2018-05-06T01:43:14.820Z,88.71
2018-05-06T01:44:14.850Z,88.71
2018-05-06T01:45:14.884Z,88.90
2018-05-06T01:46:14.916Z,88.34
2018-05-06T01:47:14.948Z,88.62
2018-05-06T01:48:14.978Z,88.53
2018-05-06T01:49:15.019Z,88.05
2018-05-06T01:50:15.044Z,88.81
2018-05-06T01:51:15.077Z,88.05
2018-05-06T01:52:15.108Z,88.34
2018-05-06T01:53:15.141Z,88.20
2018-05-06T01:54:15.173Z,88.15
2018-05-06T01:55:15.207Z,88.90
2018-05-06T01:56:15.237Z,88.95
2018-05-06T01:57:15.274Z,89.43
2018-05-06T01:58:15.304Z,89.33
2018-05-06T01:59:15.344Z,89.53
2018-05-06T02:00:15.374Z,89.90
2018-05-06T02:01:15.399Z,90.09
2018-05-06T02:02:15.432Z,89.47
2018-05-06T02:03:15.464Z,89.38
2018-05-06T02:04:15.494Z,89.57
2018-05-06T02:05:15.528Z,89.33
2018-05-06T02:06:15.564Z,89.72
2018-05-06T02:07:15.598Z,90.19
2018-05-06T02:08:15.623Z,90.00
2018-05-06T02:09:15.693Z,89.90
2018-05-06T02:10:15.689Z,90.19
2018-05-06T02:11:15.721Z,89.81
2018-05-06T02:12:15.754Z,90.19
2018-05-06T02:13:15.795Z,90.00
2018-05-06T02:14:15.819Z,90.47
2018-05-06T02:15:15.851Z,90.19
2018-05-06T02:16:15.886Z,90.57
2018-05-06T02:17:15.918Z,90.76
2018-05-06T02:18:15.948Z,90.95
2018-05-06T02:19:15.981Z,91.71
2018-05-06T02:20:16.021Z,91.71
2018-05-06T02:21:16.045Z,91.89
2018-05-06T02:22:16.078Z,91.80
2018-05-06T02:23:16.115Z,92.37
2018-05-06T02:24:16.140Z,92.37
2018-05-06T02:25:16.174Z,91.80
2018-05-06T02:26:16.205Z,91.80
2018-05-06T02:27:16.245Z,91.61
2018-05-06T02:28:16.268Z,91.89
2018-05-06T02:29:16.301Z,91.71
2018-05-06T02:30:16.410Z,91.99
2018-05-06T02:31:16.368Z,92.28
2018-05-06T02:32:16.397Z,92.09
2018-05-06T02:33:16.429Z,92.75
2018-05-06T02:34:16.461Z,92.28
2018-05-06T02:35:16.508Z,92.09
2018-05-06T02:36:16.529Z,91.61
2018-05-06T02:37:16.558Z,91.33
2018-05-06T02:38:16.596Z,91.61
2018-05-06T02:39:16.629Z,91.61
2018-05-06T02:40:16.659Z,91.61
2018-05-06T02:41:16.688Z,90.66
2018-05-06T02:42:16.731Z,91.89
2018-05-06T02:43:16.767Z,90.85
2018-05-06T02:44:16.790Z,91.04
2018-05-06T02:45:16.815Z,91.71
2018-05-06T02:46:16.849Z,91.52
2018-05-06T02:47:16.881Z,91.33
2018-05-06T02:48:16.913Z,92.18
2018-05-06T02:49:16.944Z,92.56
2018-05-06T02:50:16.986Z,92.37
2018-05-06T02:51:17.009Z,92.66
2018-05-06T02:52:17.044Z,93.32
2018-05-06T02:53:17.073Z,92.18
2018-05-06T02:54:17.109Z,92.75
2018-05-06T02:55:17.139Z,93.13
2018-05-06T02:56:17.167Z,92.28
2018-05-06T02:57:17.199Z,92.37
2018-05-06T02:58:17.233Z,92.47
2018-05-06T02:59:17.273Z,92.56
2018-05-06T03:00:17.295Z,92.66
2018-05-06T03:01:17.328Z,92.37
2018-05-06T03:02:17.364Z,92.85
2018-05-06T03:03:17.394Z,92.66
2018-05-06T03:04:17.424Z,92.18
2018-05-06T03:05:17.455Z,92.75
2018-05-06T03:06:17.489Z,92.66
2018-05-06T03:07:17.521Z,92.56
2018-05-06T03:08:17.552Z,92.47
2018-05-06T03:09:17.583Z,93.13
2018-05-06T03:10:17.615Z,93.32
2018-05-06T03:11:17.646Z,93.51
2018-05-06T03:12:17.678Z,93.51
2018-05-06T03:13:17.713Z,93.70
2018-05-06T03:14:17.745Z,93.80
2018-05-06T03:15:17.773Z,94.18
2018-05-06T03:16:17.806Z,93.60
2018-05-06T03:17:17.839Z,93.80
2018-05-06T03:18:17.870Z,93.70
2018-05-06T03:19:17.904Z,93.80
2018-05-06T03:20:17.933Z,93.41
2018-05-06T03:21:17.966Z,94.46
2018-05-06T03:22:17.998Z,94.46
2018-05-06T03:23:18.031Z,94.08
2018-05-06T03:24:18.061Z,93.99
2018-05-06T03:25:18.095Z,94.08
2018-05-06T03:26:18.126Z,94.08
2018-05-06T03:27:18.157Z,94.65
2018-05-06T03:28:18.189Z,94.93
2018-05-06T03:29:18.220Z,95.31
2018-05-06T03:30:18.253Z,95.07
2018-05-06T03:31:18.285Z,95.17
2018-05-06T03:32:18.316Z,96.03
2018-05-06T03:33:18.348Z,96.03
2018-05-06T03:34:18.380Z,95.84
2018-05-06T03:35:18.412Z,96.50
2018-05-06T03:36:18.443Z,96.50
2018-05-06T03:37:18.476Z,97.64
2018-05-06T03:38:18.508Z,97.64
2018-05-06T03:39:18.540Z,97.55
2018-05-06T03:40:18.569Z,97.45
2018-05-06T03:41:18.603Z,97.36
2018-05-06T03:42:18.639Z,97.07
2018-05-06T03:43:18.666Z,98.11
2018-05-06T03:44:18.697Z,98.11
2018-05-06T03:45:18.733Z,97.45
2018-05-06T03:46:18.762Z,97.26
2018-05-06T03:47:18.791Z,97.45
2018-05-06T03:48:18.823Z,98.59
2018-05-06T03:49:18.856Z,97.74
2018-05-06T03:50:18.893Z,97.92
2018-05-06T03:51:18.920Z,97.55
2018-05-06T03:52:18.951Z,97.26
2018-05-06T03:53:18.983Z,97.36
2018-05-06T03:54:19.020Z,97.64
2018-05-06T03:55:19.047Z,97.83
2018-05-06T03:56:19.077Z,98.21
2018-05-06T03:57:19.109Z,98.59
2018-05-06T03:58:19.140Z,98.68
2018-05-06T03:59:19.182Z,98.49
2018-05-06T04:00:19.206Z,98.02
2018-05-06T04:01:19.240Z,98.59
2018-05-06T04:02:19.269Z,98.40
2018-05-06T04:03:19.298Z,98.87
2018-05-06T04:04:19.332Z,99.06
2018-05-06T04:05:19.362Z,98.21
2018-05-06T04:06:19.393Z,98.68
2018-05-06T04:07:19.427Z,98.59
2018-05-06T04:08:19.457Z,98.30
2018-05-06T04:09:19.494Z,98.02
2018-05-06T04:10:19.522Z,98.02
2018-05-06T04:11:19.556Z,97.64
2018-05-06T04:12:19.584Z,97.55
2018-05-06T04:13:19.616Z,98.11
2018-05-06T04:14:19.648Z,98.59
2018-05-06T04:15:19.684Z,98.40
2018-05-06T04:16:19.720Z,98.40
2018-05-06T04:17:19.743Z,98.11
2018-05-06T04:18:19.774Z,97.83
2018-05-06T04:19:19.814Z,97.45
2018-05-06T04:20:19.839Z,97.45
2018-05-06T04:21:19.907Z,97.83
2018-05-06T04:22:19.900Z,97.17
2018-05-06T04:23:19.932Z,97.92
2018-05-06T04:24:19.971Z,97.45
2018-05-06T04:25:19.994Z,97.83
2018-05-06T04:26:20.026Z,97.74
2018-05-06T04:27:20.058Z,97.74
2018-05-06T04:28:20.090Z,98.30
2018-05-06T04:29:20.121Z,98.30
2018-05-06T04:30:20.156Z,98.40
2018-05-06T04:31:20.185Z,98.21
2018-05-06T04:32:20.216Z,98.02
2018-05-06T04:33:20.248Z,98.02
2018-05-06T04:34:20.279Z,98.21
2018-05-06T04:35:20.312Z,98.02
2018-05-06T04:36:20.350Z,98.68
2018-05-06T04:37:20.378Z,98.35
2018-05-06T04:38:20.409Z,98.54
2018-05-06T04:39:20.439Z,98.64
2018-05-06T04:40:20.470Z,98.83
2018-05-06T04:41:20.503Z,97.97
2018-05-06T04:42:20.533Z,98.35
2018-05-06T04:43:20.567Z,98.26
2018-05-06T04:44:20.680Z,98.35
2018-05-06T04:45:20.632Z,97.50
2018-05-06T04:46:20.662Z,98.07
2018-05-06T04:47:20.708Z,97.78
2018-05-06T04:48:20.728Z,97.92
2018-05-06T04:49:20.756Z,97.50
2018-05-06T04:50:20.791Z,97.97
2018-05-06T04:51:20.822Z,97.50
2018-05-06T04:52:20.852Z,97.50
2018-05-06T04:53:20.884Z,97.50
2018-05-06T04:54:20.915Z,97.22
2018-05-06T04:55:20.947Z,96.64
2018-05-06T04:56:20.979Z,96.17
2018-05-06T04:57:21.013Z,95.79
2018-05-06T04:58:21.051Z,96.17
2018-05-06T04:59:21.076Z,95.98
2018-05-06T05:00:21.107Z,95.60
2018-05-06T05:01:21.139Z,95.41
2018-05-06T05:02:21.171Z,95.12
2018-05-06T05:03:21.206Z,94.74
2018-05-06T05:04:21.235Z,94.37
2018-05-06T05:05:21.267Z,94.13
2018-05-06T05:06:21.298Z,93.65
2018-05-06T05:07:21.331Z,93.84
2018-05-06T05:08:21.372Z,93.56
2018-05-06T05:09:21.396Z,94.03
2018-05-06T05:10:21.427Z,93.56
2018-05-06T05:11:21.460Z,93.65
2018-05-06T05:12:21.491Z,93.65
2018-05-06T05:13:21.523Z,92.99
2018-05-06T05:14:21.557Z,93.08
2018-05-06T05:15:21.588Z,92.90
2018-05-06T05:16:21.621Z,92.61
2018-05-06T05:17:21.653Z,92.42
2018-05-06T05:18:21.684Z,92.32
2018-05-06T05:19:21.717Z,92.27
2018-05-06T05:20:21.749Z,92.42
2018-05-06T05:21:21.782Z,92.85
2018-05-06T05:22:21.814Z,91.99
2018-05-06T05:23:21.856Z,91.61
2018-05-06T05:24:21.878Z,91.42
2018-05-06T05:25:21.910Z,91.52
2018-05-06T05:26:21.945Z,90.56
2018-05-06T05:27:21.976Z,90.47
2018-05-06T05:28:22.008Z,90.28
2018-05-06T05:29:22.050Z,89.80
2018-05-06T05:30:22.075Z,89.90
2018-05-06T05:31:22.110Z,89.28
2018-05-06T05:32:22.137Z,88.80
2018-05-06T05:33:22.168Z,88.33
2018-05-06T05:34:22.274Z,88.04
2018-05-06T05:35:22.236Z,87.76
2018-05-06T05:36:22.266Z,87.85
2018-05-06T05:38:22.333Z,86.99
2018-05-06T05:39:22.366Z,86.66
2018-05-06T05:40:22.396Z,86.09
2018-05-06T05:41:22.432Z,85.80
2018-05-06T05:42:22.462Z,85.33
2018-05-06T05:43:22.496Z,85.42
2018-05-06T05:44:22.530Z,85.33
2018-05-06T05:45:22.561Z,85.33
2018-05-06T05:46:22.594Z,84.85
2018-05-06T05:47:22.626Z,84.95
2018-05-06T05:48:22.660Z,84.19
2018-05-06T05:49:22.692Z,84.19
2018-05-06T05:50:22.728Z,83.81
2018-05-06T05:51:22.759Z,83.18
2018-05-06T05:52:22.791Z,83.18
2018-05-06T05:53:22.824Z,82.51
2018-05-06T05:54:22.857Z,81.66
2018-05-06T05:55:22.892Z,81.66
2018-05-06T05:56:22.927Z,81.95
2018-05-06T05:57:22.957Z,81.47
2018-05-06T05:58:22.990Z,81.13
2018-05-06T05:59:23.025Z,80.94
2018-05-06T06:00:23.060Z,81.03
2018-05-06T06:01:23.163Z,80.27
2018-05-06T06:02:23.125Z,80.27
2018-05-06T06:03:23.160Z,79.51
2018-05-06T06:04:23.197Z,79.22
2018-05-06T06:05:23.225Z,79.03
2018-05-06T06:06:23.259Z,78.78
2018-05-06T06:07:23.291Z,78.03
2018-05-06T06:08:23.330Z,77.83
2018-05-06T06:09:23.356Z,76.98
2018-05-06T06:10:23.389Z,76.50
2018-05-06T06:11:23.426Z,76.40
2018-05-06T06:12:23.457Z,75.93
2018-05-06T06:13:23.493Z,76.25
2018-05-06T06:14:23.526Z,76.06
2018-05-06T06:15:23.561Z,75.78
2018-05-06T06:16:23.595Z,75.40
2018-05-06T06:17:23.625Z,75.87
2018-05-06T06:18:23.665Z,75.30
2018-05-06T06:19:23.693Z,74.35
2018-05-06T06:20:23.727Z,74.63
2018-05-06T06:21:23.770Z,74.19
2018-05-06T06:22:23.796Z,74.29
2018-05-06T06:23:23.831Z,73.52
2018-05-06T06:24:23.866Z,72.96
2018-05-06T06:25:23.898Z,73.43
2018-05-06T06:26:24.005Z,72.48
2018-05-06T06:27:23.967Z,72.42
2018-05-06T06:28:24.002Z,72.71
2018-05-06T06:29:24.037Z,70.79
2018-05-06T06:30:24.069Z,70.79
2018-05-06T06:31:24.106Z,70.61
2018-05-06T06:32:24.138Z,70.42
2018-05-06T06:33:24.182Z,70.89
2018-05-06T06:34:24.210Z,70.61
2018-05-06T06:35:24.250Z,70.42
2018-05-06T06:36:24.282Z,69.59
2018-05-06T06:37:24.314Z,70.64
2018-05-06T06:38:24.401Z,71.59
2018-05-06T06:39:24.387Z,70.83
2018-05-06T06:40:24.416Z,70.07
2018-05-06T06:41:24.465Z,69.68
2018-05-06T06:42:24.487Z,69.68
2018-05-06T06:43:24.527Z,69.02
2018-05-06T06:44:24.562Z,69.21
2018-05-06T06:45:24.594Z,68.63
2018-05-06T06:46:24.627Z,68.26
2018-05-06T06:47:24.671Z,68.76
2018-05-06T06:48:24.696Z,68.38
2018-05-06T06:49:24.732Z,68.57
2018-05-06T06:50:24.768Z,67.91
2018-05-06T06:51:24.802Z,68.29
2018-05-06T06:52:24.845Z,67.91
2018-05-06T06:53:24.873Z,68.48
2018-05-06T06:54:24.907Z,68.48
2018-05-06T06:55:24.945Z,68.38
2018-05-06T06:56:24.979Z,68.00
2018-05-06T06:57:25.014Z,68.70
2018-05-06T06:58:25.051Z,68.32
2018-05-06T06:59:25.087Z,67.75
2018-05-06T07:00:25.123Z,67.08
2018-05-06T07:01:25.158Z,67.18
2018-05-06T07:02:25.189Z,65.93
2018-05-06T07:03:25.232Z,66.13
2018-05-06T07:04:25.262Z,65.84
2018-05-06T07:05:25.300Z,66.16
2018-05-06T07:07:25.371Z,66.54
2018-05-06T07:08:25.406Z,65.87
2018-05-06T07:09:25.446Z,66.25
2018-05-06T07:10:25.481Z,66.06
2018-05-06T07:11:25.632Z,65.87
2018-05-06T07:12:25.550Z,65.48
2018-05-06T07:13:25.595Z,65.30
2018-05-06T07:14:25.627Z,65.39
2018-05-06T07:15:25.659Z,66.19
2018-05-06T07:16:25.694Z,66.86
2018-05-06T07:17:25.730Z,66.96
2018-05-06T07:18:25.766Z,67.34
2018-05-06T07:19:25.801Z,67.14
2018-05-06T07:20:25.839Z,66.76
2018-05-06T07:22:25.910Z,66.67
2018-05-06T07:23:25.947Z,66.38
2018-05-06T07:24:25.990Z,66.19
2018-05-06T07:25:26.019Z,66.47
2018-05-06T07:26:26.054Z,65.90
2018-05-06T07:27:26.092Z,65.84
2018-05-06T07:28:26.128Z,66.80
2018-05-06T07:29:26.164Z,67.27
2018-05-06T07:30:26.206Z,66.51
2018-05-06T07:31:26.238Z,65.84
2018-05-06T07:32:26.274Z,65.08
2018-05-06T07:33:26.314Z,64.53
2018-05-06T07:34:26.350Z,64.82
2018-05-06T07:35:26.388Z,64.72
2018-05-06T07:36:26.421Z,62.90
2018-05-06T07:37:26.459Z,61.37
2018-05-06T07:38:26.494Z,59.30
2018-05-06T07:39:26.530Z,58.53
2018-05-06T07:40:26.616Z,56.81
2018-05-06T07:41:26.655Z,56.93
2018-05-06T07:42:26.641Z,55.87
2018-05-06T07:43:26.679Z,56.45
2018-05-06T07:44:26.713Z,56.45
2018-05-06T07:45:26.749Z,55.49
2018-05-06T07:46:26.790Z,55.62
2018-05-06T07:47:26.826Z,55.71
2018-05-06T07:48:26.862Z,54.94
2018-05-06T07:49:26.900Z,54.85
2018-05-06T07:50:26.935Z,54.85
2018-05-06T07:51:26.979Z,54.11
2018-05-06T07:52:27.007Z,54.97
2018-05-06T07:53:27.045Z,54.97
2018-05-06T07:54:27.083Z,54.78
2018-05-06T07:55:27.120Z,54.68
2018-05-06T07:56:27.159Z,54.21
2018-05-06T07:57:27.195Z,53.82
2018-05-06T07:58:27.277Z,54.21
2018-05-06T07:59:27.279Z,53.44
2018-05-06T08:00:27.305Z,53.24
2018-05-06T08:01:27.344Z,53.53
2018-05-06T08:02:27.386Z,53.15
2018-05-06T08:03:27.420Z,53.63
2018-05-06T08:04:27.460Z,52.76
2018-05-06T08:05:27.493Z,52.86
2018-05-06T08:06:27.536Z,52.86
2018-05-06T08:07:27.568Z,52.95
2018-05-06T08:08:27.614Z,53.72
2018-05-06T08:09:27.646Z,52.67
2018-05-06T08:10:27.684Z,52.79
2018-05-06T08:11:27.723Z,52.60
2018-05-06T08:12:27.755Z,52.02
2018-05-06T08:13:27.796Z,52.79
2018-05-06T08:14:27.831Z,52.79
2018-05-06T08:15:27.871Z,52.89
2018-05-06T08:16:27.961Z,53.08
2018-05-06T08:17:27.945Z,52.89
2018-05-06T08:18:27.983Z,51.35
2018-05-06T08:19:28.022Z,51.83
2018-05-06T08:20:28.057Z,51.64
2018-05-06T08:21:28.097Z,51.73
2018-05-06T08:22:28.132Z,51.83
2018-05-06T08:23:28.179Z,51.83
2018-05-06T08:24:28.215Z,51.18
2018-05-06T08:25:28.251Z,51.25
2018-05-06T08:26:28.284Z,50.78
2018-05-06T08:27:28.321Z,51.06
2018-05-06T08:28:28.358Z,50.99
2018-05-06T08:29:28.396Z,51.76
2018-05-06T08:30:28.435Z,51.47
2018-05-06T08:31:28.473Z,50.70
2018-05-06T08:32:28.518Z,51.09
2018-05-06T08:33:28.551Z,50.23
2018-05-06T08:34:28.586Z,49.74
2018-05-06T08:35:28.626Z,49.93
2018-05-06T08:36:28.662Z,50.13
2018-05-06T08:37:28.743Z,50.03
2018-05-06T08:38:28.738Z,50.42
2018-05-06T08:39:28.790Z,50.42
2018-05-06T08:40:28.813Z,50.13
2018-05-06T08:41:28.853Z,49.93
2018-05-06T08:42:28.890Z,49.65
2018-05-06T08:43:28.931Z,49.65
2018-05-06T08:44:28.969Z,49.65
2018-05-06T08:45:29.003Z,49.74
2018-05-06T08:46:29.045Z,49.55
2018-05-06T08:47:29.086Z,48.69
2018-05-06T08:48:29.125Z,49.07
2018-05-06T08:49:29.168Z,49.84
2018-05-06T08:50:29.196Z,48.49
2018-05-06T08:51:29.325Z,48.59
2018-05-06T08:52:29.278Z,50.03
2018-05-06T08:54:29.349Z,48.49
2018-05-06T08:55:29.386Z,49.17
2018-05-06T08:56:29.424Z,48.79
2018-05-06T08:57:29.463Z,48.52
2018-05-06T08:58:29.503Z,48.61
2018-05-06T08:59:29.539Z,48.81
2018-05-06T09:00:29.580Z,49.48
2018-05-06T09:01:29.623Z,48.81
2018-05-06T09:02:29.653Z,49.57
2018-05-06T09:03:29.693Z,48.81
2018-05-06T09:04:29.732Z,47.94
2018-05-06T09:05:29.769Z,47.94
2018-05-06T09:06:29.811Z,48.81
2018-05-06T09:07:29.847Z,48.71
2018-05-06T09:08:29.889Z,47.94
2018-05-06T09:09:29.923Z,48.90
2018-05-06T09:10:29.961Z,47.46
2018-05-06T09:11:30.006Z,47.75
2018-05-06T09:12:30.037Z,47.46
2018-05-06T09:13:30.081Z,47.46
2018-05-06T09:14:30.123Z,47.94
2018-05-06T09:15:30.154Z,47.85
2018-05-06T09:16:30.192Z,47.58
2018-05-06T09:17:30.231Z,46.62
2018-05-06T09:18:30.269Z,47.68
2018-05-06T09:19:30.308Z,46.81
2018-05-06T09:20:30.347Z,46.33
2018-05-06T09:21:30.384Z,46.43
2018-05-06T09:22:30.423Z,45.08
2018-05-06T09:23:30.462Z,45.08
2018-05-06T09:24:30.532Z,45.37
2018-05-06T09:25:30.691Z,45.85
2018-05-06T09:26:30.577Z,46.14
2018-05-06T09:27:30.627Z,45.85
2018-05-06T09:28:30.655Z,45.66
2018-05-06T09:29:30.692Z,45.37
2018-05-06T09:30:30.734Z,45.76
2018-05-06T09:31:30.771Z,46.36
2018-05-06T09:32:30.809Z,46.45
2018-05-06T09:33:30.848Z,45.87
2018-05-06T09:34:30.923Z,45.87
2018-05-06T09:35:30.924Z,46.64
2018-05-06T09:36:30.965Z,47.22
2018-05-06T09:37:31.004Z,46.74
2018-05-06T09:38:31.044Z,46.36
2018-05-06T09:39:31.084Z,45.29
2018-05-06T09:40:31.124Z,45.39
2018-05-06T09:41:31.158Z,45.39
2018-05-06T09:42:31.196Z,45.20
2018-05-06T09:43:31.287Z,43.85
2018-05-06T09:44:31.274Z,42.12
2018-05-06T09:45:31.312Z,42.60
2018-05-06T09:46:31.425Z,42.89
2018-05-06T09:47:31.456Z,42.80
2018-05-06T09:48:32.371Z,43.85
2018-05-06T09:50:31.510Z,43.47
2018-05-06T09:51:31.553Z,43.47
2018-05-06T09:52:31.587Z,43.08
2018-05-06T09:53:31.624Z,43.85
2018-05-06T09:54:31.666Z,43.37
2018-05-06T09:55:31.711Z,43.49
2018-05-06T09:56:31.749Z,44.14
2018-05-06T09:57:31.785Z,43.66
2018-05-06T09:58:31.820Z,44.93
2018-05-06T09:59:31.863Z,45.03
2018-05-06T10:00:31.899Z,44.35
2018-05-06T10:01:31.936Z,43.97
2018-05-06T10:02:31.976Z,44.84
2018-05-06T10:03:32.014Z,45.51
2018-05-06T10:04:32.055Z,45.42
2018-05-06T10:05:32.092Z,44.65
2018-05-06T10:06:32.132Z,43.68
2018-05-06T10:07:32.170Z,44.07
2018-05-06T10:08:32.210Z,45.13
2018-05-06T10:09:32.258Z,43.97
2018-05-06T10:10:32.287Z,43.78
2018-05-06T10:11:32.327Z,44.07
2018-05-06T10:12:32.364Z,43.78
2018-05-06T10:13:32.406Z,44.45
2018-05-06T10:14:32.444Z,44.74
2018-05-06T10:15:32.491Z,43.59
2018-05-06T10:16:32.528Z,43.78
2018-05-06T10:17:32.565Z,44.26
2018-05-06T10:18:32.611Z,44.84
2018-05-06T10:19:32.642Z,44.84
2018-05-06T10:20:32.678Z,44.84
2018-05-06T10:21:32.719Z,44.65
2018-05-06T10:23:32.798Z,43.90
2018-05-06T10:24:32.836Z,44.96
2018-05-06T10:25:32.876Z,44.96
2018-05-06T10:26:32.915Z,43.71
2018-05-06T10:27:33.005Z,43.80
2018-05-06T10:29:33.033Z,43.03
2018-05-06T10:30:33.080Z,42.84
2018-05-06T10:31:33.112Z,43.61
2018-05-06T10:32:33.159Z,44.09
2018-05-06T10:33:33.189Z,43.71
2018-05-06T10:34:33.230Z,42.84
2018-05-06T10:35:33.269Z,43.13
2018-05-06T10:36:33.316Z,44.38
2018-05-06T10:37:33.448Z,43.61
2018-05-06T10:38:33.406Z,43.41
2018-05-06T10:39:33.427Z,43.51
2018-05-06T10:40:33.467Z,43.71
2018-05-06T10:41:33.511Z,43.51
2018-05-06T10:42:33.548Z,43.61
2018-05-06T10:43:33.586Z,42.84
2018-05-06T10:44:33.715Z,43.71
2018-05-06T10:45:33.673Z,43.24
2018-05-06T10:46:33.719Z,42.96
2018-05-06T10:47:33.743Z,43.54
2018-05-06T10:48:33.797Z,43.63
2018-05-06T10:50:33.864Z,43.05
2018-05-06T10:51:33.902Z,43.54
2018-05-06T10:52:33.940Z,43.15
2018-05-06T10:53:33.980Z,43.73
2018-05-06T10:54:34.023Z,43.34
2018-05-06T10:55:34.062Z,43.82
2018-05-06T10:56:34.102Z,44.21
2018-05-06T10:57:34.140Z,44.89
2018-05-06T10:58:34.180Z,45.07
2018-05-06T10:59:34.224Z,44.02
2018-05-06T11:00:34.260Z,43.92
2018-05-06T11:01:34.303Z,44.98
2018-05-06T11:02:34.338Z,44.40
2018-05-06T11:03:34.386Z,45.27
2018-05-06T11:04:34.465Z,44.02
2018-05-06T11:05:34.458Z,44.11
2018-05-06T11:06:34.511Z,43.73
2018-05-06T11:07:34.537Z,43.73
2018-05-06T11:08:34.575Z,44.89
2018-05-06T11:09:34.668Z,44.98
2018-05-06T11:10:34.656Z,45.68
2018-05-06T11:11:34.695Z,44.32
2018-05-06T11:12:34.734Z,42.96
2018-05-06T11:13:34.776Z,43.17
2018-05-06T11:14:34.821Z,43.46
2018-05-06T11:15:34.855Z,43.46
2018-05-06T11:16:34.894Z,43.55
2018-05-06T11:17:34.938Z,43.65
2018-05-06T11:18:34.976Z,42.88
2018-05-06T11:19:35.016Z,42.79
2018-05-06T11:20:35.054Z,42.40
2018-05-06T11:21:35.110Z,43.07
2018-05-06T11:22:35.140Z,43.27
2018-05-06T11:23:35.176Z,42.30
2018-05-06T11:24:35.214Z,43.37
2018-05-06T11:25:35.260Z,42.97
2018-05-06T11:26:35.297Z,43.65
2018-05-06T11:27:35.337Z,43.85
2018-05-06T11:28:35.373Z,44.52
2018-05-06T11:29:35.415Z,44.04
2018-05-06T11:30:35.455Z,44.32
2018-05-06T11:31:35.505Z,44.23
2018-05-06T11:32:35.540Z,44.62
2018-05-06T11:33:35.576Z,44.83
2018-05-06T11:34:35.615Z,43.46
2018-05-06T11:35:35.663Z,43.65
2018-05-06T11:36:35.695Z,44.13
2018-05-06T11:37:35.739Z,44.42
2018-05-06T11:38:35.775Z,43.46
2018-05-06T11:39:35.834Z,43.27
2018-05-06T11:40:35.861Z,43.75
2018-05-06T11:41:35.898Z,43.37
2018-05-06T11:42:35.946Z,43.65
2018-05-06T11:43:35.976Z,44.52
2018-05-06T11:44:36.015Z,44.04
2018-05-06T11:45:36.057Z,43.75
2018-05-06T11:46:36.096Z,45.00
2018-05-06T11:47:36.154Z,45.48
2018-05-06T11:48:36.176Z,44.32
2018-05-06T11:49:36.221Z,45.39
2018-05-06T11:50:36.262Z,45.48
2018-05-06T11:51:36.297Z,45.20
2018-05-06T11:52:36.342Z,45.10
2018-05-06T11:53:36.377Z,45.12
2018-05-06T11:54:36.421Z,44.90
2018-05-06T11:55:36.462Z,44.52
2018-05-06T11:56:36.511Z,45.10
2018-05-06T11:57:36.539Z,44.90
2018-05-06T11:58:36.580Z,45.29
2018-05-06T11:59:36.623Z,45.10
2018-05-06T12:00:36.661Z,44.04
2018-05-06T12:01:36.699Z,44.32
2018-05-06T12:02:36.744Z,46.06
2018-05-06T12:03:36.781Z,44.83
2018-05-06T12:04:36.819Z,44.83
2018-05-06T12:05:36.859Z,44.06
2018-05-06T12:06:36.907Z,43.96
2018-05-06T12:07:36.942Z,44.25
2018-05-06T12:08:36.979Z,43.77
2018-05-06T12:09:37.020Z,43.58
2018-05-06T12:10:37.061Z,44.35
2018-05-06T12:11:37.109Z,44.93
2018-05-06T12:12:37.140Z,44.83
2018-05-06T12:13:37.183Z,43.29
2018-05-06T12:14:37.230Z,42.90
2018-05-06T12:15:37.262Z,43.77
2018-05-06T12:16:37.306Z,43.48
2018-05-06T12:17:37.342Z,43.96
2018-05-06T12:18:37.383Z,43.58
2018-05-06T12:19:37.427Z,44.06
2018-05-06T12:20:37.468Z,45.12
2018-05-06T12:21:37.505Z,45.31
2018-05-06T12:22:37.544Z,44.25
2018-05-06T12:23:37.589Z,43.67
2018-05-06T12:24:37.626Z,43.77
2018-05-06T12:25:37.667Z,43.67
2018-05-06T12:26:37.707Z,44.83
2018-05-06T12:27:37.748Z,45.24
2018-05-06T12:28:37.787Z,44.18
2018-05-06T12:29:37.828Z,43.79
2018-05-06T12:30:37.870Z,43.02
2018-05-06T12:31:37.912Z,42.63
2018-05-06T12:32:37.947Z,42.54
2018-05-06T12:33:38.021Z,43.21
2018-05-06T12:34:38.030Z,42.73
2018-05-06T12:35:38.070Z,41.46
2018-05-06T12:36:38.110Z,41.94
2018-05-06T12:37:38.151Z,41.55
2018-05-06T12:38:38.305Z,41.94
2018-05-06T12:39:38.232Z,43.29
2018-05-06T12:40:38.275Z,42.71
2018-05-06T12:41:38.313Z,42.71
2018-05-06T12:42:38.367Z,42.61
2018-05-06T12:43:38.394Z,42.23
2018-05-06T12:44:38.434Z,42.23
2018-05-06T12:45:38.474Z,42.44
2018-05-06T12:46:38.516Z,42.35
2018-05-06T12:47:38.557Z,42.05
2018-05-06T12:48:38.595Z,42.54
2018-05-06T12:49:38.638Z,43.21
2018-05-06T12:50:38.679Z,43.21
2018-05-06T12:51:38.717Z,42.83
2018-05-06T12:52:38.759Z,42.73
2018-05-06T12:53:38.798Z,42.71
2018-05-06T12:54:38.842Z,43.10
2018-05-06T12:55:38.881Z,43.67
2018-05-06T12:56:38.919Z,43.31
2018-05-06T12:57:38.960Z,43.21
2018-05-06T12:58:39.002Z,43.12
2018-05-06T12:59:39.043Z,42.44
2018-05-06T13:00:39.084Z,42.15